sensor_id;sensor_type;location;lat;lon;timestamp;P1;durP1;ratioP1;P2;durP2;ratioP2
12660;SDS011;39039;51.802;5.710;2022-11-15T00:02:20;40.90;;;16.03;;
12660;SDS011;39039;51.802;5.710;2022-11-15T00:04:48;42.50;;;16.20;;
12660;SDS011;39039;51.802;5.710;2022-11-15T00:07:15;32.13;;;15.57;;
12660;SDS011;39039;51.802;5.710;2022-11-15T00:09:43;36.23;;;15.67;;
12660;SDS011;39039;51.802;5.710;2022-11-15T00:12:10;33.97;;;14.93;;
12660;SDS011;39039;51.802;5.710;2022-11-15T00:14:37;34.43;;;15.13;;
12660;SDS011;39039;51.802;5.710;2022-11-15T00:17:03;38.43;;;15.80;;
12660;SDS011;39039;51.802;5.710;2022-11-15T00:19:30;38.47;;;14.77;;
12660;SDS011;39039;51.802;5.710;2022-11-15T00:21:59;39.47;;;15.50;;
12660;SDS011;39039;51.802;5.710;2022-11-15T00:24:26;31.70;;;14.23;;
12660;SDS011;39039;51.802;5.710;2022-11-15T00:26:53;36.23;;;15.17;;
12660;SDS011;39039;51.802;5.710;2022-11-15T00:29:20;37.43;;;14.77;;
12660;SDS011;39039;51.802;5.710;2022-11-15T00:31:47;31.30;;;14.40;;
12660;SDS011;39039;51.802;5.710;2022-11-15T00:34:14;29.20;;;14.37;;
12660;SDS011;39039;51.802;5.710;2022-11-15T00:36:41;28.47;;;14.40;;
12660;SDS011;39039;51.802;5.710;2022-11-15T00:39:10;31.43;;;16.10;;
12660;SDS011;39039;51.802;5.710;2022-11-15T00:41:37;30.60;;;15.43;;
12660;SDS011;39039;51.802;5.710;2022-11-15T00:44:06;38.43;;;15.70;;
12660;SDS011;39039;51.802;5.710;2022-11-15T00:46:33;34.10;;;14.67;;
12660;SDS011;39039;51.802;5.710;2022-11-15T00:49:00;29.90;;;14.17;;
12660;SDS011;39039;51.802;5.710;2022-11-15T00:51:27;31.07;;;13.80;;
12660;SDS011;39039;51.802;5.710;2022-11-15T00:53:54;38.07;;;15.60;;
12660;SDS011;39039;51.802;5.710;2022-11-15T00:56:24;29.87;;;14.23;;
12660;SDS011;39039;51.802;5.710;2022-11-15T00:58:50;27.07;;;14.00;;
12660;SDS011;39039;51.802;5.710;2022-11-15T01:01:20;29.37;;;14.43;;
12660;SDS011;39039;51.802;5.710;2022-11-15T01:03:50;36.13;;;15.23;;
12660;SDS011;39039;51.802;5.710;2022-11-15T01:06:17;32.10;;;14.53;;
12660;SDS011;39039;51.802;5.710;2022-11-15T01:08:44;33.83;;;15.57;;
12660;SDS011;39039;51.802;5.710;2022-11-15T01:11:11;33.73;;;15.30;;
12660;SDS011;39039;51.802;5.710;2022-11-15T01:13:41;30.00;;;14.50;;
12660;SDS011;39039;51.802;5.710;2022-11-15T01:16:09;33.10;;;13.73;;
12660;SDS011;39039;51.802;5.710;2022-11-15T01:18:38;35.00;;;15.87;;
12660;SDS011;39039;51.802;5.710;2022-11-15T01:21:06;29.60;;;14.77;;
12660;SDS011;39039;51.802;5.710;2022-11-15T01:23:33;35.30;;;15.80;;
12660;SDS011;39039;51.802;5.710;2022-11-15T01:26:01;38.80;;;15.47;;
12660;SDS011;39039;51.802;5.710;2022-11-15T01:28:31;29.17;;;14.33;;
12660;SDS011;39039;51.802;5.710;2022-11-15T01:31:00;32.83;;;14.73;;
12660;SDS011;39039;51.802;5.710;2022-11-15T01:33:27;28.10;;;14.27;;
12660;SDS011;39039;51.802;5.710;2022-11-15T01:35:54;28.73;;;13.90;;
12660;SDS011;39039;51.802;5.710;2022-11-15T01:38:30;26.40;;;14.40;;
12660;SDS011;39039;51.802;5.710;2022-11-15T01:40:57;32.70;;;14.80;;
12660;SDS011;39039;51.802;5.710;2022-11-15T01:43:25;29.87;;;14.87;;
12660;SDS011;39039;51.802;5.710;2022-11-15T01:45:54;26.97;;;13.40;;
12660;SDS011;39039;51.802;5.710;2022-11-15T01:48:25;30.57;;;15.10;;
12660;SDS011;39039;51.802;5.710;2022-11-15T01:50:57;30.13;;;14.30;;
12660;SDS011;39039;51.802;5.710;2022-11-15T01:53:25;30.77;;;14.40;;
12660;SDS011;39039;51.802;5.710;2022-11-15T01:55:54;27.43;;;14.30;;
12660;SDS011;39039;51.802;5.710;2022-11-15T01:58:22;26.77;;;13.17;;
12660;SDS011;39039;51.802;5.710;2022-11-15T02:00:49;27.27;;;13.13;;
12660;SDS011;39039;51.802;5.710;2022-11-15T02:03:19;30.60;;;13.57;;
12660;SDS011;39039;51.802;5.710;2022-11-15T02:05:48;26.10;;;13.43;;
12660;SDS011;39039;51.802;5.710;2022-11-15T02:08:15;22.00;;;13.27;;
12660;SDS011;39039;51.802;5.710;2022-11-15T02:10:45;29.63;;;12.97;;
12660;SDS011;39039;51.802;5.710;2022-11-15T02:13:14;27.03;;;12.80;;
12660;SDS011;39039;51.802;5.710;2022-11-15T02:15:43;24.73;;;13.80;;
12660;SDS011;39039;51.802;5.710;2022-11-15T02:18:15;26.17;;;12.97;;
12660;SDS011;39039;51.802;5.710;2022-11-15T02:20:47;27.37;;;13.13;;
12660;SDS011;39039;51.802;5.710;2022-11-15T02:23:35;26.40;;;13.00;;
12660;SDS011;39039;51.802;5.710;2022-11-15T02:26:13;27.87;;;13.57;;
12660;SDS011;39039;51.802;5.710;2022-11-15T02:28:47;26.03;;;14.20;;
12660;SDS011;39039;51.802;5.710;2022-11-15T02:31:19;26.27;;;13.37;;
12660;SDS011;39039;51.802;5.710;2022-11-15T02:34:03;26.60;;;13.07;;
12660;SDS011;39039;51.802;5.710;2022-11-15T02:36:36;20.27;;;11.37;;
12660;SDS011;39039;51.802;5.710;2022-11-15T02:39:09;23.20;;;13.27;;
12660;SDS011;39039;51.802;5.710;2022-11-15T02:41:39;29.77;;;13.73;;
12660;SDS011;39039;51.802;5.710;2022-11-15T02:44:11;26.47;;;13.53;;
12660;SDS011;39039;51.802;5.710;2022-11-15T02:46:40;27.67;;;13.80;;
12660;SDS011;39039;51.802;5.710;2022-11-15T02:49:27;27.03;;;13.23;;
12660;SDS011;39039;51.802;5.710;2022-11-15T02:51:55;23.63;;;13.17;;
12660;SDS011;39039;51.802;5.710;2022-11-15T02:54:23;29.27;;;14.00;;
12660;SDS011;39039;51.802;5.710;2022-11-15T02:56:51;23.60;;;12.00;;
12660;SDS011;39039;51.802;5.710;2022-11-15T02:59:23;27.17;;;14.30;;
12660;SDS011;39039;51.802;5.710;2022-11-15T03:02:02;29.80;;;16.20;;
12660;SDS011;39039;51.802;5.710;2022-11-15T03:04:34;34.67;;;15.40;;
12660;SDS011;39039;51.802;5.710;2022-11-15T03:07:05;28.67;;;15.13;;
12660;SDS011;39039;51.802;5.710;2022-11-15T03:09:35;29.40;;;14.47;;
12660;SDS011;39039;51.802;5.710;2022-11-15T03:12:07;28.37;;;15.33;;
12660;SDS011;39039;51.802;5.710;2022-11-15T03:14:36;34.37;;;15.90;;
12660;SDS011;39039;51.802;5.710;2022-11-15T03:17:08;36.10;;;15.50;;
12660;SDS011;39039;51.802;5.710;2022-11-15T03:19:43;42.40;;;15.80;;
12660;SDS011;39039;51.802;5.710;2022-11-15T03:22:12;35.57;;;16.77;;
12660;SDS011;39039;51.802;5.710;2022-11-15T03:24:42;30.90;;;15.70;;
12660;SDS011;39039;51.802;5.710;2022-11-15T03:27:11;32.63;;;15.70;;
12660;SDS011;39039;51.802;5.710;2022-11-15T03:29:39;26.73;;;13.73;;
12660;SDS011;39039;51.802;5.710;2022-11-15T03:32:10;28.17;;;14.77;;
12660;SDS011;39039;51.802;5.710;2022-11-15T03:34:39;31.43;;;15.33;;
12660;SDS011;39039;51.802;5.710;2022-11-15T03:37:08;29.87;;;15.43;;
12660;SDS011;39039;51.802;5.710;2022-11-15T03:39:37;32.40;;;14.93;;
12660;SDS011;39039;51.802;5.710;2022-11-15T03:42:06;24.13;;;13.43;;
12660;SDS011;39039;51.802;5.710;2022-11-15T03:44:46;26.83;;;14.83;;
12660;SDS011;39039;51.802;5.710;2022-11-15T03:47:16;26.83;;;14.73;;
12660;SDS011;39039;51.802;5.710;2022-11-15T03:49:45;32.23;;;14.27;;
12660;SDS011;39039;51.802;5.710;2022-11-15T03:52:17;30.00;;;14.53;;
12660;SDS011;39039;51.802;5.710;2022-11-15T03:54:47;26.03;;;13.43;;
12660;SDS011;39039;51.802;5.710;2022-11-15T03:57:15;22.50;;;12.83;;
12660;SDS011;39039;51.802;5.710;2022-11-15T03:59:42;24.83;;;13.70;;
12660;SDS011;39039;51.802;5.710;2022-11-15T04:02:09;25.80;;;13.13;;
12660;SDS011;39039;51.802;5.710;2022-11-15T04:04:37;27.20;;;13.77;;
12660;SDS011;39039;51.802;5.710;2022-11-15T04:07:04;25.07;;;13.00;;
12660;SDS011;39039;51.802;5.710;2022-11-15T04:09:31;25.87;;;13.10;;
12660;SDS011;39039;51.802;5.710;2022-11-15T04:12:18;21.27;;;12.27;;
12660;SDS011;39039;51.802;5.710;2022-11-15T04:14:55;25.73;;;12.90;;
12660;SDS011;39039;51.802;5.710;2022-11-15T04:17:32;22.17;;;12.83;;
12660;SDS011;39039;51.802;5.710;2022-11-15T04:20:08;21.80;;;12.10;;
12660;SDS011;39039;51.802;5.710;2022-11-15T04:22:53;21.27;;;12.53;;
12660;SDS011;39039;51.802;5.710;2022-11-15T04:25:38;22.67;;;13.20;;
12660;SDS011;39039;51.802;5.710;2022-11-15T04:28:05;24.20;;;12.90;;
12660;SDS011;39039;51.802;5.710;2022-11-15T04:30:32;25.43;;;13.13;;
12660;SDS011;39039;51.802;5.710;2022-11-15T04:32:59;23.73;;;12.43;;
12660;SDS011;39039;51.802;5.710;2022-11-15T04:35:28;24.37;;;13.50;;
12660;SDS011;39039;51.802;5.710;2022-11-15T04:37:55;24.27;;;13.00;;
12660;SDS011;39039;51.802;5.710;2022-11-15T04:40:21;26.40;;;13.83;;
12660;SDS011;39039;51.802;5.710;2022-11-15T04:42:48;25.17;;;14.03;;
12660;SDS011;39039;51.802;5.710;2022-11-15T04:45:15;27.47;;;14.47;;
12660;SDS011;39039;51.802;5.710;2022-11-15T04:47:43;29.93;;;14.83;;
12660;SDS011;39039;51.802;5.710;2022-11-15T04:50:10;36.03;;;15.90;;
12660;SDS011;39039;51.802;5.710;2022-11-15T04:52:40;28.17;;;15.37;;
12660;SDS011;39039;51.802;5.710;2022-11-15T04:55:07;31.37;;;14.97;;
12660;SDS011;39039;51.802;5.710;2022-11-15T04:57:34;27.93;;;14.60;;
12660;SDS011;39039;51.802;5.710;2022-11-15T05:00:01;34.93;;;15.97;;
12660;SDS011;39039;51.802;5.710;2022-11-15T05:02:28;29.20;;;14.80;;
12660;SDS011;39039;51.802;5.710;2022-11-15T05:05:15;32.97;;;15.30;;
12660;SDS011;39039;51.802;5.710;2022-11-15T05:07:43;34.23;;;17.00;;
12660;SDS011;39039;51.802;5.710;2022-11-15T05:10:10;30.33;;;15.83;;
12660;SDS011;39039;51.802;5.710;2022-11-15T05:12:37;32.00;;;15.27;;
12660;SDS011;39039;51.802;5.710;2022-11-15T05:15:04;30.53;;;15.77;;
12660;SDS011;39039;51.802;5.710;2022-11-15T05:17:31;32.63;;;16.20;;
12660;SDS011;39039;51.802;5.710;2022-11-15T05:19:58;27.37;;;14.70;;
12660;SDS011;39039;51.802;5.710;2022-11-15T05:22:25;30.17;;;14.67;;
12660;SDS011;39039;51.802;5.710;2022-11-15T05:24:54;38.63;;;16.60;;
12660;SDS011;39039;51.802;5.710;2022-11-15T05:27:21;33.33;;;16.43;;
12660;SDS011;39039;51.802;5.710;2022-11-15T05:29:47;31.33;;;15.63;;
12660;SDS011;39039;51.802;5.710;2022-11-15T05:32:14;27.43;;;13.30;;
12660;SDS011;39039;51.802;5.710;2022-11-15T05:34:43;32.57;;;16.27;;
12660;SDS011;39039;51.802;5.710;2022-11-15T05:37:11;33.67;;;15.00;;
12660;SDS011;39039;51.802;5.710;2022-11-15T05:39:38;35.87;;;14.77;;
12660;SDS011;39039;51.802;5.710;2022-11-15T05:42:07;27.20;;;14.90;;
12660;SDS011;39039;51.802;5.710;2022-11-15T05:44:36;29.53;;;14.37;;
12660;SDS011;39039;51.802;5.710;2022-11-15T05:47:04;25.73;;;14.33;;
12660;SDS011;39039;51.802;5.710;2022-11-15T05:49:34;27.23;;;14.40;;
12660;SDS011;39039;51.802;5.710;2022-11-15T05:52:02;27.77;;;14.23;;
12660;SDS011;39039;51.802;5.710;2022-11-15T05:54:32;30.83;;;14.53;;
12660;SDS011;39039;51.802;5.710;2022-11-15T05:57:00;28.40;;;14.60;;
12660;SDS011;39039;51.802;5.710;2022-11-15T05:59:31;27.87;;;14.23;;
12660;SDS011;39039;51.802;5.710;2022-11-15T06:01:59;34.53;;;15.77;;
12660;SDS011;39039;51.802;5.710;2022-11-15T06:04:26;37.57;;;14.50;;
12660;SDS011;39039;51.802;5.710;2022-11-15T06:06:53;27.23;;;14.20;;
12660;SDS011;39039;51.802;5.710;2022-11-15T06:09:20;31.37;;;15.77;;
12660;SDS011;39039;51.802;5.710;2022-11-15T06:11:47;31.33;;;15.37;;
12660;SDS011;39039;51.802;5.710;2022-11-15T06:14:14;27.53;;;14.70;;
12660;SDS011;39039;51.802;5.710;2022-11-15T06:16:43;28.17;;;13.97;;
12660;SDS011;39039;51.802;5.710;2022-11-15T06:19:10;30.93;;;14.63;;
12660;SDS011;39039;51.802;5.710;2022-11-15T06:21:37;25.03;;;13.43;;
12660;SDS011;39039;51.802;5.710;2022-11-15T06:24:06;34.10;;;15.13;;
12660;SDS011;39039;51.802;5.710;2022-11-15T06:26:36;27.57;;;13.33;;
12660;SDS011;39039;51.802;5.710;2022-11-15T06:29:03;29.07;;;14.60;;
12660;SDS011;39039;51.802;5.710;2022-11-15T06:31:30;28.13;;;14.50;;
12660;SDS011;39039;51.802;5.710;2022-11-15T06:34:00;37.20;;;15.00;;
12660;SDS011;39039;51.802;5.710;2022-11-15T06:36:27;27.90;;;14.57;;
12660;SDS011;39039;51.802;5.710;2022-11-15T06:38:54;26.23;;;13.30;;
12660;SDS011;39039;51.802;5.710;2022-11-15T06:41:21;23.50;;;12.63;;
12660;SDS011;39039;51.802;5.710;2022-11-15T06:43:48;25.20;;;14.33;;
12660;SDS011;39039;51.802;5.710;2022-11-15T06:46:15;28.53;;;15.03;;
12660;SDS011;39039;51.802;5.710;2022-11-15T06:48:42;25.23;;;12.30;;
12660;SDS011;39039;51.802;5.710;2022-11-15T06:51:10;23.43;;;11.97;;
12660;SDS011;39039;51.802;5.710;2022-11-15T06:53:37;24.80;;;13.23;;
12660;SDS011;39039;51.802;5.710;2022-11-15T06:56:04;24.93;;;12.73;;
12660;SDS011;39039;51.802;5.710;2022-11-15T06:58:32;24.10;;;12.27;;
12660;SDS011;39039;51.802;5.710;2022-11-15T07:01:00;27.77;;;12.40;;
12660;SDS011;39039;51.802;5.710;2022-11-15T07:03:30;26.30;;;12.03;;
12660;SDS011;39039;51.802;5.710;2022-11-15T07:05:57;24.73;;;12.13;;
12660;SDS011;39039;51.802;5.710;2022-11-15T07:08:26;19.43;;;11.57;;
12660;SDS011;39039;51.802;5.710;2022-11-15T07:10:54;24.07;;;12.33;;
12660;SDS011;39039;51.802;5.710;2022-11-15T07:13:23;22.43;;;12.00;;
12660;SDS011;39039;51.802;5.710;2022-11-15T07:15:53;21.50;;;12.03;;
12660;SDS011;39039;51.802;5.710;2022-11-15T07:18:20;25.27;;;12.40;;
12660;SDS011;39039;51.802;5.710;2022-11-15T07:20:49;20.43;;;11.10;;
12660;SDS011;39039;51.802;5.710;2022-11-15T07:23:16;22.20;;;12.57;;
12660;SDS011;39039;51.802;5.710;2022-11-15T07:25:45;23.60;;;11.33;;
12660;SDS011;39039;51.802;5.710;2022-11-15T07:28:12;25.77;;;10.73;;
12660;SDS011;39039;51.802;5.710;2022-11-15T07:30:39;24.80;;;11.90;;
12660;SDS011;39039;51.802;5.710;2022-11-15T07:33:15;22.23;;;11.50;;
12660;SDS011;39039;51.802;5.710;2022-11-15T07:35:46;21.13;;;11.27;;
12660;SDS011;39039;51.802;5.710;2022-11-15T07:38:16;23.37;;;12.30;;
12660;SDS011;39039;51.802;5.710;2022-11-15T07:40:46;21.17;;;11.40;;
12660;SDS011;39039;51.802;5.710;2022-11-15T07:43:14;22.10;;;12.40;;
12660;SDS011;39039;51.802;5.710;2022-11-15T07:45:41;23.60;;;12.10;;
12660;SDS011;39039;51.802;5.710;2022-11-15T07:48:09;27.63;;;12.57;;
12660;SDS011;39039;51.802;5.710;2022-11-15T07:50:36;21.60;;;11.30;;
12660;SDS011;39039;51.802;5.710;2022-11-15T07:53:03;24.40;;;12.47;;
12660;SDS011;39039;51.802;5.710;2022-11-15T07:55:30;23.13;;;12.47;;
12660;SDS011;39039;51.802;5.710;2022-11-15T07:58:01;21.13;;;12.17;;
12660;SDS011;39039;51.802;5.710;2022-11-15T08:00:28;21.83;;;11.57;;
12660;SDS011;39039;51.802;5.710;2022-11-15T08:03:01;27.17;;;12.73;;
12660;SDS011;39039;51.802;5.710;2022-11-15T08:05:28;24.13;;;12.73;;
12660;SDS011;39039;51.802;5.710;2022-11-15T08:07:56;25.00;;;13.23;;
12660;SDS011;39039;51.802;5.710;2022-11-15T08:10:23;23.07;;;12.30;;
12660;SDS011;39039;51.802;5.710;2022-11-15T08:12:56;25.70;;;12.73;;
12660;SDS011;39039;51.802;5.710;2022-11-15T08:15:24;21.87;;;12.33;;
12660;SDS011;39039;51.802;5.710;2022-11-15T08:17:53;23.60;;;12.97;;
12660;SDS011;39039;51.802;5.710;2022-11-15T08:20:20;24.73;;;12.20;;
12660;SDS011;39039;51.802;5.710;2022-11-15T08:22:47;22.07;;;11.30;;
12660;SDS011;39039;51.802;5.710;2022-11-15T08:25:14;21.07;;;12.23;;
12660;SDS011;39039;51.802;5.710;2022-11-15T08:27:41;24.13;;;12.17;;
12660;SDS011;39039;51.802;5.710;2022-11-15T08:30:09;20.47;;;11.73;;
12660;SDS011;39039;51.802;5.710;2022-11-15T08:32:40;22.60;;;11.93;;
12660;SDS011;39039;51.802;5.710;2022-11-15T08:35:07;20.63;;;11.40;;
12660;SDS011;39039;51.802;5.710;2022-11-15T08:37:34;26.13;;;13.00;;
12660;SDS011;39039;51.802;5.710;2022-11-15T08:40:01;26.17;;;12.80;;
12660;SDS011;39039;51.802;5.710;2022-11-15T08:42:28;21.23;;;11.10;;
12660;SDS011;39039;51.802;5.710;2022-11-15T08:44:55;20.77;;;10.17;;
12660;SDS011;39039;51.802;5.710;2022-11-15T08:47:22;22.43;;;11.17;;
12660;SDS011;39039;51.802;5.710;2022-11-15T08:49:51;17.73;;;9.47;;
12660;SDS011;39039;51.802;5.710;2022-11-15T08:52:18;21.20;;;9.83;;
12660;SDS011;39039;51.802;5.710;2022-11-15T08:54:47;19.53;;;10.93;;
12660;SDS011;39039;51.802;5.710;2022-11-15T08:57:14;22.10;;;10.23;;
12660;SDS011;39039;51.802;5.710;2022-11-15T08:59:42;22.80;;;10.17;;
12660;SDS011;39039;51.802;5.710;2022-11-15T09:02:11;16.07;;;9.30;;
12660;SDS011;39039;51.802;5.710;2022-11-15T09:04:39;17.23;;;8.73;;
12660;SDS011;39039;51.802;5.710;2022-11-15T09:07:10;14.60;;;8.57;;
12660;SDS011;39039;51.802;5.710;2022-11-15T09:09:37;12.03;;;7.13;;
12660;SDS011;39039;51.802;5.710;2022-11-15T09:12:05;14.43;;;8.30;;
12660;SDS011;39039;51.802;5.710;2022-11-15T09:14:32;14.10;;;7.63;;
12660;SDS011;39039;51.802;5.710;2022-11-15T09:16:59;12.67;;;6.80;;
12660;SDS011;39039;51.802;5.710;2022-11-15T09:19:26;13.03;;;6.97;;
12660;SDS011;39039;51.802;5.710;2022-11-15T09:21:53;10.97;;;7.20;;
12660;SDS011;39039;51.802;5.710;2022-11-15T09:24:22;10.07;;;6.67;;
12660;SDS011;39039;51.802;5.710;2022-11-15T09:26:49;16.23;;;6.90;;
12660;SDS011;39039;51.802;5.710;2022-11-15T09:29:19;12.83;;;6.87;;
12660;SDS011;39039;51.802;5.710;2022-11-15T09:31:46;13.20;;;6.80;;
12660;SDS011;39039;51.802;5.710;2022-11-15T09:34:13;9.77;;;6.00;;
12660;SDS011;39039;51.802;5.710;2022-11-15T09:36:43;9.37;;;6.13;;
12660;SDS011;39039;51.802;5.710;2022-11-15T09:39:10;12.83;;;6.37;;
12660;SDS011;39039;51.802;5.710;2022-11-15T09:41:47;10.53;;;6.53;;
12660;SDS011;39039;51.802;5.710;2022-11-15T09:44:23;9.00;;;6.03;;
12660;SDS011;39039;51.802;5.710;2022-11-15T09:46:54;12.47;;;5.80;;
12660;SDS011;39039;51.802;5.710;2022-11-15T09:49:23;15.80;;;6.67;;
12660;SDS011;39039;51.802;5.710;2022-11-15T09:51:51;10.20;;;6.23;;
12660;SDS011;39039;51.802;5.710;2022-11-15T09:54:21;10.10;;;5.97;;
12660;SDS011;39039;51.802;5.710;2022-11-15T09:56:51;9.47;;;5.57;;
12660;SDS011;39039;51.802;5.710;2022-11-15T10:02:08;9.20;;;5.60;;
12660;SDS011;39039;51.802;5.710;2022-11-15T10:04:39;8.77;;;4.80;;
12660;SDS011;39039;51.802;5.710;2022-11-15T10:07:11;6.20;;;4.37;;
12660;SDS011;39039;51.802;5.710;2022-11-15T10:09:42;8.13;;;4.57;;
12660;SDS011;39039;51.802;5.710;2022-11-15T10:12:12;8.60;;;4.20;;
12660;SDS011;39039;51.802;5.710;2022-11-15T10:14:39;7.57;;;4.40;;
12660;SDS011;39039;51.802;5.710;2022-11-15T10:17:14;9.07;;;4.23;;
12660;SDS011;39039;51.802;5.710;2022-11-15T10:19:48;6.60;;;3.80;;
12660;SDS011;39039;51.802;5.710;2022-11-15T10:22:21;5.13;;;3.27;;
12660;SDS011;39039;51.802;5.710;2022-11-15T10:27:37;5.40;;;2.87;;
12660;SDS011;39039;51.802;5.710;2022-11-15T10:30:08;5.17;;;3.00;;
12660;SDS011;39039;51.802;5.710;2022-11-15T10:32:37;6.00;;;2.80;;
12660;SDS011;39039;51.802;5.710;2022-11-15T10:35:15;3.50;;;2.27;;
12660;SDS011;39039;51.802;5.710;2022-11-15T10:37:43;3.30;;;1.90;;
12660;SDS011;39039;51.802;5.710;2022-11-15T10:40:15;4.33;;;1.93;;
12660;SDS011;39039;51.802;5.710;2022-11-15T10:42:47;4.00;;;1.80;;
12660;SDS011;39039;51.802;5.710;2022-11-15T10:45:28;2.90;;;1.97;;
12660;SDS011;39039;51.802;5.710;2022-11-15T10:48:18;5.33;;;1.90;;
12660;SDS011;39039;51.802;5.710;2022-11-15T10:50:46;2.97;;;2.23;;
12660;SDS011;39039;51.802;5.710;2022-11-15T10:53:15;3.27;;;1.93;;
12660;SDS011;39039;51.802;5.710;2022-11-15T10:55:45;5.63;;;1.83;;
12660;SDS011;39039;51.802;5.710;2022-11-15T10:58:21;8.00;;;1.93;;
12660;SDS011;39039;51.802;5.710;2022-11-15T11:00:49;2.13;;;1.60;;
12660;SDS011;39039;51.802;5.710;2022-11-15T11:03:26;4.07;;;1.70;;
12660;SDS011;39039;51.802;5.710;2022-11-15T11:06:02;8.27;;;1.70;;
12660;SDS011;39039;51.802;5.710;2022-11-15T11:08:30;2.20;;;1.40;;
12660;SDS011;39039;51.802;5.710;2022-11-15T11:10:59;2.87;;;1.43;;
12660;SDS011;39039;51.802;5.710;2022-11-15T11:13:29;3.87;;;1.60;;
12660;SDS011;39039;51.802;5.710;2022-11-15T11:15:59;4.43;;;1.30;;
12660;SDS011;39039;51.802;5.710;2022-11-15T11:18:30;2.93;;;1.30;;
12660;SDS011;39039;51.802;5.710;2022-11-15T11:21:01;2.57;;;1.50;;
12660;SDS011;39039;51.802;5.710;2022-11-15T11:23:35;2.17;;;1.10;;
12660;SDS011;39039;51.802;5.710;2022-11-15T11:26:08;2.50;;;1.20;;
12660;SDS011;39039;51.802;5.710;2022-11-15T11:28:41;4.20;;;1.30;;
12660;SDS011;39039;51.802;5.710;2022-11-15T11:31:13;3.90;;;1.50;;
12660;SDS011;39039;51.802;5.710;2022-11-15T11:33:44;2.90;;;1.33;;
12660;SDS011;39039;51.802;5.710;2022-11-15T11:36:21;2.50;;;1.00;;
12660;SDS011;39039;51.802;5.710;2022-11-15T11:38:55;2.90;;;1.10;;
12660;SDS011;39039;51.802;5.710;2022-11-15T11:47:00;3.17;;;0.90;;
12660;SDS011;39039;51.802;5.710;2022-11-15T11:49:30;1.60;;;1.17;;
12660;SDS011;39039;51.802;5.710;2022-11-15T11:52:01;2.20;;;1.00;;
12660;SDS011;39039;51.802;5.710;2022-11-15T11:54:31;1.10;;;0.90;;
12660;SDS011;39039;51.802;5.710;2022-11-15T11:57:01;2.97;;;1.60;;
12660;SDS011;39039;51.802;5.710;2022-11-15T11:59:32;2.87;;;1.43;;
12660;SDS011;39039;51.802;5.710;2022-11-15T12:02:07;2.97;;;1.40;;
12660;SDS011;39039;51.802;5.710;2022-11-15T12:04:38;3.03;;;1.30;;
12660;SDS011;39039;51.802;5.710;2022-11-15T12:07:12;4.57;;;1.70;;
12660;SDS011;39039;51.802;5.710;2022-11-15T12:09:41;3.33;;;1.47;;
12660;SDS011;39039;51.802;5.710;2022-11-15T12:12:11;2.60;;;1.17;;
12660;SDS011;39039;51.802;5.710;2022-11-15T12:14:45;4.70;;;1.23;;
12660;SDS011;39039;51.802;5.710;2022-11-15T12:17:15;1.57;;;1.00;;
12660;SDS011;39039;51.802;5.710;2022-11-15T12:19:43;3.00;;;1.20;;
12660;SDS011;39039;51.802;5.710;2022-11-15T12:22:12;2.80;;;1.07;;
12660;SDS011;39039;51.802;5.710;2022-11-15T12:24:46;2.13;;;1.00;;
12660;SDS011;39039;51.802;5.710;2022-11-15T12:27:17;3.53;;;1.30;;
12660;SDS011;39039;51.802;5.710;2022-11-15T12:29:45;1.93;;;0.93;;
12660;SDS011;39039;51.802;5.710;2022-11-15T12:32:22;1.63;;;0.80;;
12660;SDS011;39039;51.802;5.710;2022-11-15T12:34:51;4.33;;;1.10;;
12660;SDS011;39039;51.802;5.710;2022-11-15T12:37:46;2.67;;;1.07;;
12660;SDS011;39039;51.802;5.710;2022-11-15T12:40:17;2.47;;;0.80;;
12660;SDS011;39039;51.802;5.710;2022-11-15T12:42:56;3.20;;;0.90;;
12660;SDS011;39039;51.802;5.710;2022-11-15T12:45:25;2.93;;;1.00;;
12660;SDS011;39039;51.802;5.710;2022-11-15T12:48:03;3.90;;;1.20;;
12660;SDS011;39039;51.802;5.710;2022-11-15T12:50:53;6.57;;;1.20;;
12660;SDS011;39039;51.802;5.710;2022-11-15T12:53:27;2.80;;;0.87;;
12660;SDS011;39039;51.802;5.710;2022-11-15T12:58:41;2.77;;;1.20;;
12660;SDS011;39039;51.802;5.710;2022-11-15T13:01:38;2.90;;;1.07;;
12660;SDS011;39039;51.802;5.710;2022-11-15T13:04:22;2.73;;;1.00;;
12660;SDS011;39039;51.802;5.710;2022-11-15T13:06:51;1.90;;;1.10;;
12660;SDS011;39039;51.802;5.710;2022-11-15T13:14:59;1.10;;;0.97;;
12660;SDS011;39039;51.802;5.710;2022-11-15T13:17:31;4.17;;;1.13;;
12660;SDS011;39039;51.802;5.710;2022-11-15T13:22:52;8.13;;;1.00;;
12660;SDS011;39039;51.802;5.710;2022-11-15T13:28:20;2.23;;;1.10;;
12660;SDS011;39039;51.802;5.710;2022-11-15T13:30:49;3.10;;;1.27;;
12660;SDS011;39039;51.802;5.710;2022-11-15T13:33:18;9.37;;;1.10;;
12660;SDS011;39039;51.802;5.710;2022-11-15T13:35:46;1.37;;;0.80;;
12660;SDS011;39039;51.802;5.710;2022-11-15T13:38:25;2.70;;;1.30;;
12660;SDS011;39039;51.802;5.710;2022-11-15T13:40:53;4.93;;;1.10;;
12660;SDS011;39039;51.802;5.710;2022-11-15T13:43:25;1.27;;;0.70;;
12660;SDS011;39039;51.802;5.710;2022-11-15T13:46:03;4.63;;;1.30;;
12660;SDS011;39039;51.802;5.710;2022-11-15T13:48:30;3.20;;;1.10;;
12660;SDS011;39039;51.802;5.710;2022-11-15T13:50:58;3.90;;;1.07;;
12660;SDS011;39039;51.802;5.710;2022-11-15T13:53:27;1.53;;;1.00;;
12660;SDS011;39039;51.802;5.710;2022-11-15T13:55:54;3.83;;;1.10;;
12660;SDS011;39039;51.802;5.710;2022-11-15T13:58:24;1.73;;;0.80;;
12660;SDS011;39039;51.802;5.710;2022-11-15T14:00:57;4.10;;;1.77;;
12660;SDS011;39039;51.802;5.710;2022-11-15T14:03:26;1.77;;;0.90;;
12660;SDS011;39039;51.802;5.710;2022-11-15T14:06:04;3.20;;;0.70;;
12660;SDS011;39039;51.802;5.710;2022-11-15T14:08:34;3.03;;;0.70;;
12660;SDS011;39039;51.802;5.710;2022-11-15T14:11:12;2.83;;;0.80;;
12660;SDS011;39039;51.802;5.710;2022-11-15T14:13:41;3.37;;;1.00;;
12660;SDS011;39039;51.802;5.710;2022-11-15T14:16:15;2.17;;;0.70;;
12660;SDS011;39039;51.802;5.710;2022-11-15T14:18:43;1.87;;;0.93;;
12660;SDS011;39039;51.802;5.710;2022-11-15T14:21:11;4.83;;;1.30;;
12660;SDS011;39039;51.802;5.710;2022-11-15T14:23:39;2.40;;;1.00;;
12660;SDS011;39039;51.802;5.710;2022-11-15T14:26:10;0.90;;;0.67;;
12660;SDS011;39039;51.802;5.710;2022-11-15T14:28:38;2.97;;;0.80;;
12660;SDS011;39039;51.802;5.710;2022-11-15T14:31:10;1.50;;;0.90;;
12660;SDS011;39039;51.802;5.710;2022-11-15T14:33:40;4.23;;;1.20;;
12660;SDS011;39039;51.802;5.710;2022-11-15T14:36:10;3.23;;;0.90;;
12660;SDS011;39039;51.802;5.710;2022-11-15T14:38:40;2.13;;;0.80;;
12660;SDS011;39039;51.802;5.710;2022-11-15T14:41:10;2.87;;;1.00;;
12660;SDS011;39039;51.802;5.710;2022-11-15T14:43:44;1.37;;;0.90;;
12660;SDS011;39039;51.802;5.710;2022-11-15T14:46:11;6.37;;;1.50;;
12660;SDS011;39039;51.802;5.710;2022-11-15T14:48:38;2.20;;;0.73;;
12660;SDS011;39039;51.802;5.710;2022-11-15T14:51:09;2.20;;;1.03;;
12660;SDS011;39039;51.802;5.710;2022-11-15T14:53:41;2.83;;;0.70;;
12660;SDS011;39039;51.802;5.710;2022-11-15T14:56:08;1.73;;;0.80;;
12660;SDS011;39039;51.802;5.710;2022-11-15T14:58:35;1.93;;;0.50;;
12660;SDS011;39039;51.802;5.710;2022-11-15T15:01:09;2.20;;;0.60;;
12660;SDS011;39039;51.802;5.710;2022-11-15T15:03:37;0.80;;;0.60;;
12660;SDS011;39039;51.802;5.710;2022-11-15T15:06:06;1.10;;;0.53;;
12660;SDS011;39039;51.802;5.710;2022-11-15T15:08:34;5.63;;;0.60;;
12660;SDS011;39039;51.802;5.710;2022-11-15T15:11:03;1.47;;;0.47;;
12660;SDS011;39039;51.802;5.710;2022-11-15T15:13:33;1.37;;;0.60;;